sensor_id;sensor_type;location;lat;lon;timestamp;pressure;altitude;pressure_sealevel;temperature;humidity
63622;BME280;49770;47.544;19.074;2023-02-02T05:10:14;99995.09;;;1.56;100.00
63622;BME280;49770;47.544;19.074;2023-02-02T05:13:18;99997.03;;;1.46;100.00
63622;BME280;49770;47.544;19.074;2023-02-02T05:16:22;100009.28;;;1.43;100.00
63622;BME280;49770;47.544;19.074;2023-02-02T05:19:25;100021.44;;;1.45;100.00
63622;BME280;49770;47.544;19.074;2023-02-02T05:22:28;100041.47;;;1.45;100.00
63622;BME280;49770;47.544;19.074;2023-02-02T05:25:31;100036.41;;;1.37;100.00
63622;BME280;49770;47.544;19.074;2023-02-02T05:28:33;100055.56;;;1.38;100.00
63622;BME280;49770;47.544;19.074;2023-02-02T05:31:37;100060.69;;;1.44;100.00
63622;BME280;49770;47.544;19.074;2023-02-02T05:34:40;100071.72;;;1.61;100.00
63622;BME280;49770;47.544;19.074;2023-02-02T05:37:42;100077.97;;;1.51;100.00
63622;BME280;49770;47.544;19.074;2023-02-02T05:40:47;100078.19;;;1.39;100.00
63622;BME280;49770;47.544;19.074;2023-02-02T05:43:50;100085.91;;;1.45;100.00
63622;BME280;49770;47.544;19.074;2023-02-02T05:46:53;100085.09;;;1.43;100.00
63622;BME280;49770;47.544;19.074;2023-02-02T05:49:56;100079.03;;;1.42;100.00
63622;BME280;49770;47.544;19.074;2023-02-02T05:52:59;100089.59;;;1.34;100.00
63622;BME280;49770;47.544;19.074;2023-02-02T05:56:02;100080.16;;;1.26;100.00
63622;BME280;49770;47.544;19.074;2023-02-02T05:59:05;100094.34;;;1.07;100.00
63622;BME280;49770;47.544;19.074;2023-02-02T06:02:09;100076.84;;;1.13;100.00
63622;BME280;49770;47.544;19.074;2023-02-02T06:05:12;100083.59;;;1.26;100.00
63622;BME280;49770;47.544;19.074;2023-02-02T06:08:14;100087.87;;;1.33;100.00
63622;BME280;49770;47.544;19.074;2023-02-02T06:11:18;100074.03;;;1.27;100.00
63622;BME280;49770;47.544;19.074;2023-02-02T06:14:20;100080.16;;;1.26;100.00
63622;BME280;49770;47.544;19.074;2023-02-02T06:17:23;100072.22;;;1.30;100.00
63622;BME280;49770;47.544;19.074;2023-02-02T06:20:27;100082.75;;;1.27;100.00
63622;BME280;49770;47.544;19.074;2023-02-02T06:23:31;100083.50;;;1.34;100.00
63622;BME280;49770;47.544;19.074;2023-02-02T06:26:35;100089.59;;;1.36;100.00
63622;BME280;49770;47.544;19.074;2023-02-02T06:29:38;100084.47;;;1.28;100.00
63622;BME280;49770;47.544;19.074;2023-02-02T06:32:41;100069.69;;;1.26;100.00
63622;BME280;49770;47.544;19.074;2023-02-02T06:35:44;100067.09;;;1.24;100.00
63622;BME280;49770;47.544;19.074;2023-02-02T06:38:55;100063.50;;;1.31;100.00
63622;BME280;49770;47.544;19.074;2023-02-02T06:41:58;100061.75;;;1.32;100.00
63622;BME280;49770;47.544;19.074;2023-02-02T06:45:10;100060.72;;;1.42;100.00
63622;BME280;49770;47.544;19.074;2023-02-02T06:48:13;100060.66;;;1.45;100.00
63622;BME280;49770;47.544;19.074;2023-02-02T06:51:15;100070.28;;;1.43;100.00
63622;BME280;49770;47.544;19.074;2023-02-02T06:54:18;100066.59;;;1.55;100.00
63622;BME280;49770;47.544;19.074;2023-02-02T06:57:21;100064.03;;;1.52;100.00
63622;BME280;49770;47.544;19.074;2023-02-02T07:00:25;100065.66;;;1.59;100.00
63622;BME280;49770;47.544;19.074;2023-02-02T07:03:28;100081.13;;;1.72;100.00
63622;BME280;49770;47.544;19.074;2023-02-02T07:06:31;100081.09;;;1.73;100.00
63622;BME280;49770;47.544;19.074;2023-02-02T07:13:26;100085.16;;;1.88;100.00
63622;BME280;49770;47.544;19.074;2023-02-02T07:16:29;100091.25;;;1.91;100.00
63622;BME280;49770;47.544;19.074;2023-02-02T07:19:32;100111.31;;;1.90;100.00
63622;BME280;49770;47.544;19.074;2023-02-02T07:22:39;100127.03;;;1.88;100.00
63622;BME280;49770;47.544;19.074;2023-02-02T07:25:42;100128.69;;;1.93;100.00
63622;BME280;49770;47.544;19.074;2023-02-02T07:28:46;100149.53;;;1.97;100.00
63622;BME280;49770;47.544;19.074;2023-02-02T07:31:49;100152.09;;;2.02;100.00
63622;BME280;49770;47.544;19.074;2023-02-02T07:34:52;100152.03;;;2.05;100.00
63622;BME280;49770;47.544;19.074;2023-02-02T07:37:54;100169.41;;;2.11;100.00
63622;BME280;49770;47.544;19.074;2023-02-02T07:41:01;100173.63;;;2.18;100.00
63622;BME280;49770;47.544;19.074;2023-02-02T07:44:04;100158.28;;;2.45;100.00
63622;BME280;49770;47.544;19.074;2023-02-02T07:47:08;100173.88;;;2.50;100.00
63622;BME280;49770;47.544;19.074;2023-02-02T07:50:11;100165.66;;;2.68;100.00
63622;BME280;49770;47.544;19.074;2023-02-02T07:53:14;100180.41;;;2.74;100.00
63622;BME280;49770;47.544;19.074;2023-02-02T07:56:19;100165.59;;;3.14;100.00
63622;BME280;49770;47.544;19.074;2023-02-02T07:59:22;100162.81;;;3.20;100.00
63622;BME280;49770;47.544;19.074;2023-02-02T08:02:25;100163.09;;;3.46;100.00
63622;BME280;49770;47.544;19.074;2023-02-02T08:05:28;100164.41;;;3.66;100.00
63622;BME280;49770;47.544;19.074;2023-02-02T08:08:30;100166.25;;;3.62;100.00
63622;BME280;49770;47.544;19.074;2023-02-02T08:11:35;100165.25;;;3.66;100.00
63622;BME280;49770;47.544;19.074;2023-02-02T08:14:37;100166.50;;;4.85;100.00
63622;BME280;49770;47.544;19.074;2023-02-02T08:17:44;100165.19;;;5.83;100.00
63622;BME280;49770;47.544;19.074;2023-02-02T08:20:48;100171.47;;;4.95;100.00
63622;BME280;49770;47.544;19.074;2023-02-02T08:23:51;100169.03;;;4.57;100.00
63622;BME280;49770;47.544;19.074;2023-02-02T08:26:54;100171.56;;;4.28;100.00
63622;BME280;49770;47.544;19.074;2023-02-02T08:29:57;100161.81;;;4.32;100.00
63622;BME280;49770;47.544;19.074;2023-02-02T08:33:00;100173.63;;;4.49;100.00
63622;BME280;49770;47.544;19.074;2023-02-02T08:36:04;100167.88;;;4.67;100.00
63622;BME280;49770;47.544;19.074;2023-02-02T08:39:10;100150.03;;;4.79;100.00
63622;BME280;49770;47.544;19.074;2023-02-02T08:42:14;100164.84;;;4.81;100.00
63622;BME280;49770;47.544;19.074;2023-02-02T08:45:16;100149.66;;;4.91;100.00
63622;BME280;49770;47.544;19.074;2023-02-02T08:52:40;100163.13;;;4.80;100.00
63622;BME280;49770;47.544;19.074;2023-02-02T08:55:43;100164.66;;;4.88;100.00
63622;BME280;49770;47.544;19.074;2023-02-02T08:58:49;100155.78;;;4.92;100.00
63622;BME280;49770;47.544;19.074;2023-02-02T09:01:52;100161.53;;;5.33;97.97
63622;BME280;49770;47.544;19.074;2023-02-02T09:04:55;100157.28;;;5.58;96.59
63622;BME280;49770;47.544;19.074;2023-02-02T09:07:58;100170.09;;;5.40;94.01
63622;BME280;49770;47.544;19.074;2023-02-02T09:11:06;100171.03;;;5.66;94.40
63622;BME280;49770;47.544;19.074;2023-02-02T09:14:12;100174.06;;;5.80;94.69
63622;BME280;49770;47.544;19.074;2023-02-02T09:17:15;100176.06;;;6.28;91.74
63622;BME280;49770;47.544;19.074;2023-02-02T09:20:18;100186.00;;;6.18;90.30
63622;BME280;49770;47.544;19.074;2023-02-02T09:23:22;100183.88;;;6.04;88.13
63622;BME280;49770;47.544;19.074;2023-02-02T09:26:26;100192.84;;;5.97;88.82
63622;BME280;49770;47.544;19.074;2023-02-02T09:29:30;100202.09;;;6.10;87.17
63622;BME280;49770;47.544;19.074;2023-02-02T09:32:33;100200.00;;;6.20;87.23
63622;BME280;49770;47.544;19.074;2023-02-02T09:35:35;100200.88;;;6.46;84.63
63622;BME280;49770;47.544;19.074;2023-02-02T09:38:39;100192.91;;;6.47;85.05
63622;BME280;49770;47.544;19.074;2023-02-02T09:42:23;100195.16;;;6.07;86.92
63622;BME280;49770;47.544;19.074;2023-02-02T09:45:40;100184.72;;;6.55;87.01
63622;BME280;49770;47.544;19.074;2023-02-02T09:49:12;100188.56;;;6.70;82.93
63622;BME280;49770;47.544;19.074;2023-02-02T09:55:45;100198.16;;;6.97;80.68
63622;BME280;49770;47.544;19.074;2023-02-02T09:58:52;100199.59;;;7.06;83.83
63622;BME280;49770;47.544;19.074;2023-02-02T10:01:57;100207.53;;;7.73;78.19
63622;BME280;49770;47.544;19.074;2023-02-02T10:05:17;100199.22;;;7.39;75.52
63622;BME280;49770;47.544;19.074;2023-02-02T10:08:48;100194.09;;;7.12;78.10
63622;BME280;49770;47.544;19.074;2023-02-02T10:19:12;100197.97;;;6.28;82.03
63622;BME280;49770;47.544;19.074;2023-02-02T10:22:23;100198.69;;;7.29;87.61
63622;BME280;49770;47.544;19.074;2023-02-02T10:25:29;100198.59;;;7.77;88.91
63622;BME280;49770;47.544;19.074;2023-02-02T10:32:15;100188.75;;;6.90;79.16
63622;BME280;49770;47.544;19.074;2023-02-02T10:36:14;100206.59;;;6.59;80.85
63622;BME280;49770;47.544;19.074;2023-02-02T10:39:35;100190.13;;;7.46;88.05
63622;BME280;49770;47.544;19.074;2023-02-02T10:42:48;100179.25;;;7.76;82.17
63622;BME280;49770;47.544;19.074;2023-02-02T10:46:42;100171.44;;;7.06;77.64
63622;BME280;49770;47.544;19.074;2023-02-02T10:50:01;100167.97;;;7.50;80.04
63622;BME280;49770;47.544;19.074;2023-02-02T10:53:12;100178.59;;;7.49;81.10
63622;BME280;49770;47.544;19.074;2023-02-02T10:56:21;100158.47;;;7.46;79.47
63622;BME280;49770;47.544;19.074;2023-02-02T10:59:37;100161.75;;;7.74;76.07
63622;BME280;49770;47.544;19.074;2023-02-02T11:02:46;100171.03;;;8.26;74.55
63622;BME280;49770;47.544;19.074;2023-02-02T11:05:50;100154.16;;;7.44;76.37
63622;BME280;49770;47.544;19.074;2023-02-02T11:09:13;100160.47;;;7.17;77.10
63622;BME280;49770;47.544;19.074;2023-02-02T11:12:33;100164.50;;;7.04;79.15
63622;BME280;49770;47.544;19.074;2023-02-02T11:15:38;100173.00;;;7.57;77.05
63622;BME280;49770;47.544;19.074;2023-02-02T11:18:45;100168.56;;;7.12;77.80
63622;BME280;49770;47.544;19.074;2023-02-02T11:21:51;100183.19;;;8.30;75.22
63622;BME280;49770;47.544;19.074;2023-02-02T11:25:32;100184.19;;;9.26;69.49
63622;BME280;49770;47.544;19.074;2023-02-02T11:28:36;100175.16;;;8.73;72.12
63622;BME280;49770;47.544;19.074;2023-02-02T11:31:39;100187.06;;;8.62;72.35
63622;BME280;49770;47.544;19.074;2023-02-02T11:34:41;100184.97;;;8.08;75.75
63622;BME280;49770;47.544;19.074;2023-02-02T11:41:05;100191.66;;;8.17;74.47
63622;BME280;49770;47.544;19.074;2023-02-02T11:44:25;100198.31;;;8.47;74.11
63622;BME280;49770;47.544;19.074;2023-02-02T11:47:29;100205.72;;;7.75;75.76
63622;BME280;49770;47.544;19.074;2023-02-02T11:50:34;100218.62;;;7.14;77.84
63622;BME280;49770;47.544;19.074;2023-02-02T11:53:46;100205.25;;;6.71;80.42
63622;BME280;49770;47.544;19.074;2023-02-02T11:56:52;100215.28;;;6.36;82.85
63622;BME280;49770;47.544;19.074;2023-02-02T12:03:43;100224.09;;;6.34;82.98
63622;BME280;49770;47.544;19.074;2023-02-02T12:06:44;100223.69;;;6.22;83.31
63622;BME280;49770;47.544;19.074;2023-02-02T12:09:48;100217.31;;;6.00;85.11
63622;BME280;49770;47.544;19.074;2023-02-02T12:26:35;100210.37;;;5.98;87.29
63622;BME280;49770;47.544;19.074;2023-02-02T12:30:08;100208.19;;;5.84;85.66
63622;BME280;49770;47.544;19.074;2023-02-02T12:44:21;100206.91;;;5.42;87.35
63622;BME280;49770;47.544;19.074;2023-02-02T13:04:26;100217.25;;;5.18;90.58
63622;BME280;49770;47.544;19.074;2023-02-02T13:07:52;100210.03;;;5.24;91.08
63622;BME280;49770;47.544;19.074;2023-02-02T13:11:04;100220.09;;;5.40;89.81
63622;BME280;49770;47.544;19.074;2023-02-02T13:14:18;100211.75;;;5.25;90.49
63622;BME280;49770;47.544;19.074;2023-02-02T13:21:27;100217.97;;;5.23;91.15
63622;BME280;49770;47.544;19.074;2023-02-02T13:24:25;100228.72;;;5.15;90.96
63622;BME280;49770;47.544;19.074;2023-02-02T13:27:29;100224.88;;;5.25;92.49
63622;BME280;49770;47.544;19.074;2023-02-02T13:30:36;100222.38;;;5.22;91.09
63622;BME280;49770;47.544;19.074;2023-02-02T13:33:40;100231.38;;;5.13;90.94
63622;BME280;49770;47.544;19.074;2023-02-02T13:36:49;100234.91;;;5.14;91.92
63622;BME280;49770;47.544;19.074;2023-02-02T13:39:58;100222.78;;;5.08;92.14
63622;BME280;49770;47.544;19.074;2023-02-02T13:49:34;100226.38;;;5.34;91.11
63622;BME280;49770;47.544;19.074;2023-02-02T14:02:38;100227.84;;;5.45;90.08
63622;BME280;49770;47.544;19.074;2023-02-02T14:05:43;100237.50;;;5.73;89.87
63622;BME280;49770;47.544;19.074;2023-02-02T14:09:04;100227.56;;;5.54;89.97
63622;BME280;49770;47.544;19.074;2023-02-02T14:12:10;100229.75;;;5.68;91.35
63622;BME280;49770;47.544;19.074;2023-02-02T14:15:13;100237.22;;;5.53;90.53
63622;BME280;49770;47.544;19.074;2023-02-02T14:18:50;100223.63;;;5.39;91.11
63622;BME280;49770;47.544;19.074;2023-02-02T14:38:49;100241.94;;;5.12;92.75
63622;BME280;49770;47.544;19.074;2023-02-02T14:42:04;100243.41;;;5.22;92.85
63622;BME280;49770;47.544;19.074;2023-02-02T14:45:39;100247.72;;;4.93;92.96
63622;BME280;49770;47.544;19.074;2023-02-02T14:51:50;100256.38;;;4.97;93.95
63622;BME280;49770;47.544;19.074;2023-02-02T14:54:54;100254.63;;;4.97;93.24
63622;BME280;49770;47.544;19.074;2023-02-02T14:57:59;100257.44;;;4.91;93.36
63622;BME280;49770;47.544;19.074;2023-02-02T15:13:50;100269.84;;;4.86;94.60
63622;BME280;49770;47.544;19.074;2023-02-02T15:16:54;100275.91;;;4.88;94.49
63622;BME280;49770;47.544;19.074;2023-02-02T15:26:30;100274.34;;;4.81;93.78
63622;BME280;49770;47.544;19.074;2023-02-02T15:29:40;100281.78;;;4.66;95.54
63622;BME280;49770;47.544;19.074;2023-02-02T15:32:44;100280.84;;;4.67;95.49
63622;BME280;49770;47.544;19.074;2023-02-02T15:35:48;100293.28;;;4.61;95.93
63622;BME280;49770;47.544;19.074;2023-02-02T15:38:57;100297.81;;;4.55;96.38
63622;BME280;49770;47.544;19.074;2023-02-02T15:42:05;100296.47;;;4.74;96.30
63622;BME280;49770;47.544;19.074;2023-02-02T15:45:38;100311.69;;;4.61;96.28
63622;BME280;49770;47.544;19.074;2023-02-02T15:48:46;100318.34;;;4.74;95.07
63622;BME280;49770;47.544;19.074;2023-02-02T15:51:52;100310.66;;;4.66;96.04
63622;BME280;49770;47.544;19.074;2023-02-02T15:54:58;100312.44;;;4.66;96.08
63622;BME280;49770;47.544;19.074;2023-02-02T15:58:02;100329.38;;;4.54;97.19
63622;BME280;49770;47.544;19.074;2023-02-02T16:01:13;100331.09;;;4.55;96.80
63622;BME280;49770;47.544;19.074;2023-02-02T16:04:24;100324.50;;;4.38;98.37
63622;BME280;49770;47.544;19.074;2023-02-02T16:07:30;100337.12;;;4.22;99.54
63622;BME280;49770;47.544;19.074;2023-02-02T16:10:34;100337.19;;;4.21;100.00
63622;BME280;49770;47.544;19.074;2023-02-02T16:13:37;100335.37;;;4.23;100.00
63622;BME280;49770;47.544;19.074;2023-02-02T16:16:42;100330.44;;;4.10;100.00
63622;BME280;49770;47.544;19.074;2023-02-02T16:19:50;100343.09;;;3.93;100.00
